• Join FlightAware (Why Join?)
  • Login
  • US Flag 
06:52AM EDT


 

Airport Tracker/Info


-or-


 

Live Flight TrackerFlight Track Log ✈ EJM685 ✈ 29-Sep-2013 ✈ KTEB - KBNA

Flight Track Log - Related Links

Times and Time Zones

All times are in EDT time to prevent confusion due to time zone crossing. See the EJM685 flight status page for this flight to view local times or setup timezone preferences in your user account.

Time Position Orientation Groundspeed Altitude Reporting Facility
EDT Latitude Longitude Course Direction KTS MPH feet Rate Location/Type
12:29PM 40.9000 -74.0333 237° Southwest 197 227 2,100  Level New York TRACON
12:30PM 40.9167 -74.1000 288° West 235 270 2,500 1,920 Climbing New York TRACON
12:31PM 40.9000 -74.1833 255° West 259 298 5,800 3,240 Climbing New York TRACON
12:32PM 40.8678 -74.3519 256° West 313 360 11,100 1,860 Climbing New York Center
12:33PM 40.8392 -74.4711 252° West 313 360 11,000 420 Descending New York Center
12:34PM 40.6087 -74.8575 237° Southwest  Level Estimated
12:34PM 40.8131 -74.5683 250° West 319 367 12,000  Level New York Center
12:35PM 40.7792 -74.7092 252° West 355 409 15,100 2,400 Climbing New York Center
12:36PM 40.7481 -74.8306 251° West 385 443 16,900 1,860 Climbing New York Center
12:37PM 40.7097 -74.9761 251° West 385 443 18,900 2,580 Climbing New York Center
12:38PM 40.6717 -75.1078 249° West 385 443 22,100 3,120 Climbing New York Center
12:39PM 40.6103 -75.2378 238° Southwest 398 458 25,200 2,580 Climbing New York Center
12:40PM 40.5489 -75.3758 240° Southwest 416 479 27,300 1,980 Climbing New York Center
12:41PM 40.4850 -75.5164 239° Southwest 437 503 29,200 1,920 Climbing New York Center
12:42PM 40.4139 -75.6722 239° Southwest 470 541 31,200 2,040 Climbing New York Center
12:43PM 40.3408 -75.8278 238° Southwest 493 567 33,300 2,400 Climbing New York Center
12:44PM 40.2631 -75.9825 237° Southwest 505 581 36,100 2,580 Climbing New York Center
12:45PM 40.1917 -76.1322 238° Southwest 505 581 38,500 2,340 Climbing New York Center
12:46PM 40.1222 -76.2869 240° Southwest 500 575 40,800 1,800 Climbing New York Center
12:47PM 40.0708 -76.4431 247° West 484 557 42,100 1,080 Climbing New York Center
12:49PM 39.9808 -76.7775 251° West 474 545 44,100 840 Climbing Washington Center
12:50PM 39.9375 -76.9283 250° West 488 562 44,700 420 Climbing Washington Center
12:51PM 39.8917 -77.1006 251° West 498 573 45,000 120 Climbing Washington Center
12:52PM 39.8436 -77.2722 250° West 503 579 45,000  Level Washington Center
12:53PM 39.7953 -77.4414 250° West 503 579 45,000  Level Washington Center
12:54PM 39.7489 -77.6103 250° West 503 579 45,000  Level Washington Center
12:55PM 39.7022 -77.7733 250° West 503 579 45,000  Level Washington Center
12:56PM 39.6556 -77.9392 250° West 497 572 45,000  Level Washington Center
12:57PM 39.6061 -78.1044 249° West 497 572 45,000  Level Washington Center
12:58PM 39.5611 -78.2672 250° West 497 572 45,000  Level Washington Center
12:59PM 39.5136 -78.4322 250° West 492 566 45,000  Level Washington Center
01:00PM 39.4658 -78.5944 249° West 492 566 45,000  Level Washington Center
01:01PM 39.4181 -78.7536 249° West 487 560 45,000  Level Washington Center
01:02PM 39.3722 -78.9100 249° West 482 555 45,000  Level Washington Center
01:03PM 39.3239 -79.0686 249° West 482 555 45,000  Level Washington Center
01:04PM 39.2775 -79.2247 249° West 482 555 45,000  Level Washington Center
01:05PM 39.2331 -79.3833 250° West 477 549 45,000  Level Washington Center
01:06PM 39.1864 -79.5389 249° West 477 549 45,000  Level Washington Center
01:07PM 39.1328 -79.7072 248° West 477 549 45,000  Level Washington Center
01:08PM 39.0856 -79.8650 249° West 477 549 45,000  Level Washington Center
01:09PM 39.0361 -80.0225 248° West 477 549 45,000  Level Washington Center
01:10PM 38.9900 -80.1642 247° West 466 536 45,000  Level Indianapolis Center
01:11PM 38.9414 -80.3181 248° West 467 537 45,000  Level Indianapolis Center
01:12PM 38.8933 -80.4717 248° West 465 535 45,000  Level Indianapolis Center
01:13PM 38.8456 -80.6250 248° West 462 532 45,000  Level Indianapolis Center
01:14PM 38.7953 -80.7817 248° West 472 543 45,000  Level Indianapolis Center
01:15PM 38.7356 -80.9678 248° West 470 541 45,000  Level Indianapolis Center
01:17PM 38.6856 -81.1222 248° West 469 540 45,000  Level Indianapolis Center
01:18PM 38.6353 -81.2756 247° West 466 536 45,000 180 Level Indianapolis Center
01:19PM 38.5875 -81.4264 248° West 454 522 45,400 420 Climbing Indianapolis Center
01:20PM 38.5364 -81.5842 248° West 459 528 45,900 540 Climbing Indianapolis Center
01:21PM 38.4847 -81.7392 247° West 469 540 46,600 480 Climbing Indianapolis Center
01:22PM 38.4342 -81.8917 247° West 466 536 47,000 180 Climbing Indianapolis Center
01:23PM 38.3847 -82.0425 247° West 462 532 47,000  Level Indianapolis Center
01:24PM 38.3347 -82.1917 247° West 459 528 47,000  Level Indianapolis Center
01:25PM 38.2742 -82.3711 247° West 461 531 47,000  Level Indianapolis Center
01:26PM 38.2292 -82.5042 247° West 456 525 47,000  Level Indianapolis Center
01:27PM 38.1708 -82.6775 247° West 457 526 47,000  Level Indianapolis Center
01:28PM 38.1211 -82.8247 247° West 455 524 47,000  Level Indianapolis Center
01:29PM 38.0706 -82.9725 247° West 457 526 47,000  Level Indianapolis Center
01:30PM 38.0192 -83.1197 246° West 457 526 47,000 -300 Level Indianapolis Center
01:31PM 37.9678 -83.2678 246° West 459 528 46,400 -1,020 Descending Indianapolis Center
01:32PM 37.9100 -83.4342 246° West 445 512 44,900 -1,740 Descending Indianapolis Center
01:33PM 37.8581 -83.5794 246° West 454 522 42,900 -2,220 Descending Indianapolis Center
01:34PM 37.8083 -83.7233 246° West 448 516 40,400 -2,520 Descending Indianapolis Center
01:35PM 37.7589 -83.8603 245° Southwest 432 497 37,800 -2,940 Descending Indianapolis Center
01:36PM 37.7108 -83.9978 246° West 429 494 34,400 -2,820 Descending Indianapolis Center
01:37PM 37.6447 -84.1628 243° Southwest 448 516 32,000 -1,200 Descending Indianapolis Center
01:38PM 37.5386 -84.2678 218° Southwest 481 554 32,000  Level Indianapolis Center
01:39PM 37.4303 -84.3719 217° Southwest 488 562 32,000  Level Indianapolis Center
01:40PM 37.3219 -84.4736 217° Southwest 487 560 32,000 -60 Level Indianapolis Center
01:41PM 37.2150 -84.5769 218° Southwest 485 558 31,900 -1,200 Descending Indianapolis Center
01:42PM 37.0933 -84.6939 217° Southwest 474 545 29,600 -2,040 Descending Indianapolis Center
01:43PM 37.0261 -84.8086 234° Southwest 458 527 27,800 -1,800 Descending Indianapolis Center
01:44PM 36.9650 -84.9411 240° Southwest 444 511 26,000 -1,860 Descending Indianapolis Center
01:45PM 36.8931 -85.0956 240° Southwest 433 498 24,100 -1,320 Descending Indianapolis Center
01:46PM 36.8342 -85.2247 240° Southwest 431 496 23,300 -840 Descending Indianapolis Center
01:48PM 36.7736 -85.3500 239° Southwest 424 488 22,400 -1,200 Descending Indianapolis Center
01:49PM 36.7161 -85.4747 240° Southwest 417 480 20,900 -1,920 Descending Indianapolis Center
01:50PM 36.6597 -85.5953 240° Southwest 405 466 18,500 -2,280 Descending Indianapolis Center
01:51PM 36.6044 -85.7100 239° Southwest 391 450 16,300 -2,340 Descending Indianapolis Center
01:52PM 36.5442 -85.8361 239° Southwest 371 427 13,800 -2,280 Descending Indianapolis Center
01:53PM 36.4942 -85.9439 240° Southwest 361 415 11,700 -1,380 Descending Indianapolis Center
01:54PM 36.4489 -86.0503 242° Southwest 350 403 11,000 -660 Descending Indianapolis Center
01:55PM 36.4214 -86.1564 252° West 317 365 10,400 -840 Descending Indianapolis Center
01:55PM 36.4092 -86.2022 252° West 296 341 9,700 -1,320 Descending Memphis Center
01:56PM 36.3856 -86.2911 252° West 273 314 8,400 -1,500 Descending Memphis Center
01:57PM 36.3606 -86.3814 251° West 273 314 6,600 -1,860 Descending Memphis Center
01:58PM 36.3311 -86.4872 251° West 275 316 4,600 -1,380 Descending Memphis Center
01:59PM 36.3089 -86.5672 251° West 254 292 3,800 -900 Descending Memphis Center
02:00PM 36.2633 -86.6117 218° Southwest 218 251 2,700 -780 Descending Memphis Center
02:02PM 36.2150 -86.6269 194° South 187 215 2,300 -660 Descending Memphis Center
02:03PM 36.1764 -86.6408 196° South 159 183 1,400 -780 Descending Memphis Center
02:04PM 36.1450 -86.6544 199° South 134 154 800 -420 Descending Memphis Center
02:05PM 36.1086 -86.6692 198° South 129 148 600 -240 Descending Memphis Center